Time;durP1;ratioP1;P1;durP2;ratioP2;P2;SDS_P1;SDS_P2;PMS_P1;PMS_P2;Temp;Humidity;BMP_temperature;BMP_pressure;BME280_temperature;BME280_humidity;BME280_pressure;Samples;Min_cycle;Max_cycle;Signal;HPM_P1;HPM_P2
2023/10/13 00:01:54;;;;;;;;;;;23.90;89.30;;;;;;5067166;28;42922;-80
2023/10/13 00:04:24;;;;;;;;;;;23.70;88.70;;;;;;5067945;28;42827;-80
2023/10/13 00:06:53;;;;;;;;;;;23.60;89.30;;;;;;5067147;28;44563;-81
2023/10/13 00:09:24;;;;;;;;;;;23.90;87.00;;;;;;5067196;28;43204;-80
2023/10/13 00:11:49;;;;;;;;;;;23.90;88.90;;;;;;5067736;28;43010;-79
2023/10/13 00:14:21;;;;;;;;;;;23.70;88.70;;;;;;5067438;28;43045;-79
2023/10/13 00:17:04;;;;;;;;;;;23.80;86.50;;;;;;5067321;28;43866;-80
2023/10/13 00:19:37;;;;;;;;;;;23.70;87.60;;;;;;5066647;28;43051;-79
2023/10/13 00:22:08;;;;;;;;;;;23.80;88.70;;;;;;5066708;28;43697;-80
2023/10/13 01:01:29;;;;;;;;;;;24.00;86.60;;;;;;5077177;28;43152;-78
2023/10/13 01:04:02;;;;;;;;;;;23.80;86.50;;;;;;5054655;28;42874;-79
2023/10/13 01:17:45;;;;;;;;;;;23.80;86.80;;;;;;5083626;28;43021;-79
2023/10/13 01:48:56;;;;;;;;;;;;;;;;;;;;;
2023/10/13 01:52:03;;;;;;;;;;;23.80;89.30;;;;;;5005480;28;69244;-79
2023/10/13 01:58:01;;;;;;;;;;;23.80;87.10;;;;;;5004964;28;42936;-78
2023/10/13 02:25:35;;;;;;;;;;;23.90;89.40;;;;;;4985382;28;43084;-79
2023/10/13 02:28:08;;;;;;;;;;;23.80;87.00;;;;;;4966931;28;43055;-78
2023/10/13 02:30:37;;;;;;;;;;;23.90;89.70;;;;;;4966153;28;43525;-78
2023/10/13 02:33:05;;;;;;;;;;;23.80;90.20;;;;;;4965142;28;43282;-79
2023/10/13 02:35:41;;;;;;;;;;;23.80;89.30;;;;;;4963896;28;43035;-78
2023/10/13 02:38:11;;;;;;;;;;;23.70;89.20;;;;;;5035655;28;43164;-79
2023/10/13 02:40:37;;;;;;;;;;;23.70;89.60;;;;;;5069005;28;44516;-79
2023/10/13 02:43:04;;;;;;;;;;;23.70;89.40;;;;;;5086092;28;42977;-79
2023/10/13 02:45:30;;;;;;;;;;;23.90;89.20;;;;;;5086801;28;43449;-79
2023/10/13 02:48:13;;;;;;;;;;;23.90;89.40;;;;;;5087510;28;42882;-79
2023/10/13 02:50:43;;;;;;;;;;;23.70;87.30;;;;;;5068598;28;44813;-79
2023/10/13 02:53:12;;;;;;;;;;;23.90;89.40;;;;;;5087248;28;42993;-79
2023/10/13 02:55:39;;;;;;;;;;;23.70;88.90;;;;;;5086784;28;43509;-79
2023/10/13 02:58:04;;;;;;;;;;;23.80;88.90;;;;;;5087129;28;42770;-80
2023/10/13 03:00:31;;;;;;;;;;;23.80;88.90;;;;;;5085278;27;43256;-79
2023/10/13 03:03:00;;;;;;;;;;;23.70;88.80;;;;;;5087525;28;43143;-79
2023/10/13 03:05:30;;;;;;;;;;;23.00;85.90;;;;;;5087320;28;43763;-79
2023/10/13 03:07:58;;;;;;;;;;;23.70;88.60;;;;;;5087420;28;42886;-79
2023/10/13 03:10:28;;;;;;;;;;;23.80;88.70;;;;;;5086018;28;43408;-80
2023/10/13 03:12:54;;;;;;;;;;;23.90;88.60;;;;;;5086957;28;43057;-79
2023/10/13 03:15:29;;;;;;;;;;;23.70;88.90;;;;;;5086403;28;43427;-79
2023/10/13 03:17:54;;;;;;;;;;;23.70;87.10;;;;;;5086137;28;42921;-80
2023/10/13 03:20:32;;;;;;;;;;;23.80;88.40;;;;;;5086563;28;43193;-80
2023/10/13 03:22:58;;;;;;;;;;;23.80;87.80;;;;;;5087466;28;42967;-80
2023/10/13 03:30:16;;;;;;;;;;;23.70;88.20;;;;;;5076774;28;43464;-80
2023/10/13 03:32:47;;;;;;;;;;;23.90;88.50;;;;;;5076877;28;43608;-80
2023/10/13 03:35:17;;;;;;;;;;;23.40;86.80;;;;;;5075213;28;43336;-79
2023/10/13 03:37:42;;;;;;;;;;;23.80;88.60;;;;;;5068234;28;42948;-80
2023/10/13 03:43:03;;;;;;;;;;;23.90;86.10;;;;;;5099965;28;42771;-80
2023/10/13 03:45:36;;;;;;;;;;;23.60;85.50;;;;;;5091674;28;42889;-80
2023/10/13 03:48:08;;;;;;;;;;;23.80;88.30;;;;;;5085234;28;42918;-80
2023/10/13 03:56:28;;;;;;;;;;;23.70;88.10;;;;;;5224772;22;43132;-79
2023/10/13 03:58:57;;;;;;;;;;;23.90;88.20;;;;;;5085348;28;43008;-80
2023/10/13 04:01:40;;;;;;;;;;;23.80;88.10;;;;;;5080454;28;43027;-80
2023/10/13 04:04:11;;;;;;;;;;;23.90;85.80;;;;;;5067970;28;42938;-79
2023/10/13 04:06:51;;;;;;;;;;;23.80;87.80;;;;;;5084231;28;43724;-79
2023/10/13 04:17:14;;;;;;;;;;;23.80;88.10;;;;;;5094352;27;43073;-79
2023/10/13 04:20:12;;;;;;;;;;;23.90;87.70;;;;;;5085141;28;42904;-80
2023/10/13 04:23:16;;;;;;;;;;;23.80;87.50;;;;;;5093167;27;42965;-79
2023/10/13 04:30:59;;;;;;;;;;;23.80;85.10;;;;;;5084129;27;43119;-79
2023/10/13 04:38:55;;;;;;;;;;;23.90;87.30;;;;;;5695750;22;43194;-79
2023/10/13 06:29:40;;;;;;;;;;;23.80;84.90;;;;;;4972106;28;42776;-79
2023/10/13 06:32:12;;;;;;;;;;;23.70;86.30;;;;;;4980969;28;43027;-79
2023/10/13 06:34:37;;;;;;;;;;;23.70;83.70;;;;;;4967969;28;43521;-78
2023/10/13 06:37:22;;;;;;;;;;;23.60;86.40;;;;;;4968410;28;43022;-78
2023/10/13 06:39:51;;;;;;;;;;;23.70;84.60;;;;;;4971593;28;42976;-79
2023/10/13 06:42:18;;;;;;;;;;;23.70;84.50;;;;;;4986773;28;42855;-79
2023/10/13 06:44:46;;;;;;;;;;;23.50;86.40;;;;;;4986591;28;44465;-79
2023/10/13 06:47:12;;;;;;;;;;;23.60;86.90;;;;;;4986737;28;42934;-79
2023/10/13 06:49:39;;;;;;;;;;;23.70;86.40;;;;;;5198628;22;43489;-79
2023/10/13 06:52:06;;;;;;;;;;;23.90;86.90;;;;;;5047038;28;43646;-79
2023/10/13 07:17:44;;;;;;;;;;;23.60;87.00;;;;;;5038781;28;42966;-79
2023/10/13 07:25:53;;;;;;;;;;;23.60;86.90;;;;;;5036542;28;43081;-79
2023/10/13 07:28:19;;;;;;;;;;;23.80;87.20;;;;;;5052588;28;43488;-78
2023/10/13 07:33:20;;;;;;;;;;;;;;;;;;5060847;28;42994;-79
2023/10/13 07:35:53;;;;;;;;;;;23.70;86.50;;;;;;5065182;28;42737;-79
2023/10/13 07:38:21;;;;;;;;;;;23.70;85.40;;;;;;5065709;28;64438;-79
2023/10/13 07:40:53;;;;;;;;;;;23.80;87.20;;;;;;5055300;28;42972;-79
2023/10/13 07:43:22;;;;;;;;;;;23.80;84.80;;;;;;5047459;28;44592;-77
2023/10/13 07:45:52;;;;;;;;;;;23.60;85.90;;;;;;5044913;28;43605;-78
2023/10/13 07:48:23;;;;;;;;;;;;;;;;;;5027296;28;42842;-78
2023/10/13 07:51:10;;;;;;;;;;;23.70;86.60;;;;;;5046669;28;43261;-80
2023/10/13 07:53:39;;;;;;;;;;;23.70;85.30;;;;;;5046386;28;43314;-80
2023/10/13 07:56:14;;;;;;;;;;;23.80;87.40;;;;;;5045497;28;42920;-80
2023/10/13 08:01:24;;;;;;;;;;;23.70;87.70;;;;;;5045854;28;43050;-79
2023/10/13 08:04:04;;;;;;;;;;;23.80;87.60;;;;;;5046071;28;43294;-80
2023/10/13 08:06:30;;;;;;;;;;;23.90;87.40;;;;;;5049064;28;43040;-79
2023/10/13 08:09:07;;;;;;;;;;;23.70;87.30;;;;;;5045553;28;43053;-80
2023/10/13 08:11:34;;;;;;;;;;;23.80;87.40;;;;;;5056625;28;43657;-80
2023/10/13 08:14:22;;;;;;;;;;;23.80;87.50;;;;;;5044521;28;43610;-80
2023/10/13 08:17:00;;;;;;;;;;;23.70;88.10;;;;;;5045708;28;42974;-80
2023/10/13 08:19:27;;;;;;;;;;;23.80;88.10;;;;;;5044829;28;43614;-80
2023/10/13 08:21:58;;;;;;;;;;;23.70;88.00;;;;;;5044852;28;42903;-80
2023/10/13 08:39:58;;;;;;;;;;;23.80;87.60;;;;;;5064376;28;43315;-81
2023/10/13 08:42:40;;;;;;;;;;;23.80;85.80;;;;;;5063220;28;43104;-80
2023/10/13 08:45:07;;;;;;;;;;;24.00;86.00;;;;;;5056082;28;42916;-80
2023/10/13 08:47:36;;;;;;;;;;;23.90;87.80;;;;;;5044544;28;43543;-80
2023/10/13 08:50:31;;;;;;;;;;;23.80;87.80;;;;;;5044713;28;44315;-80
2023/10/13 08:52:56;;;;;;;;;;;23.90;86.10;;;;;;5045594;28;42928;-80
2023/10/13 09:07:15;;;;;;;;;;;23.90;88.60;;;;;;5056367;28;42798;-80
2023/10/13 09:12:13;;;;;;;;;;;23.80;86.90;;;;;;5050782;28;42821;-79
2023/10/13 09:14:47;;;;;;;;;;;23.80;87.20;;;;;;5052469;28;42956;-83
2023/10/13 09:17:35;;;;;;;;;;;23.80;89.50;;;;;;5051862;28;43371;-79
2023/10/13 09:20:23;;;;;;;;;;;23.70;89.40;;;;;;5030195;28;42885;-82
2023/10/13 09:25:38;;;;;;;;;;;23.80;87.10;;;;;;5037727;28;42907;-80
2023/10/13 09:28:21;;;;;;;;;;;23.80;87.10;;;;;;5047614;28;43542;-80
2023/10/13 09:44:40;;;;;;;;;;;23.80;86.80;;;;;;5028309;28;44055;-80
2023/10/13 09:47:52;;;;;;;;;;;24.80;87.60;;;;;;5022031;28;43183;-80
2023/10/13 09:53:18;;;;;;;;;;;23.90;86.90;;;;;;5008301;28;43207;-80
2023/10/13 09:56:14;;;;;;;;;;;23.80;87.40;;;;;;4978621;28;43115;-80
2023/10/13 09:59:08;;;;;;;;;;;23.90;87.60;;;;;;4977147;28;43251;-79
2023/10/13 10:07:32;;;;;;;;;;;23.90;87.80;;;;;;4975021;28;43182;-80
2023/10/13 10:10:01;;;;;;;;;;;23.90;87.80;;;;;;4969549;28;43176;-80
2023/10/13 10:12:47;;;;;;;;;;;24.00;90.00;;;;;;4975174;28;43276;-80
2023/10/13 10:15:33;;;;;;;;;;;24.10;88.10;;;;;;4983497;28;43020;-79
2023/10/13 10:18:03;;;;;;;;;;;24.00;87.80;;;;;;4962988;28;43449;-80
2023/10/13 10:20:39;;;;;;;;;;;23.90;87.70;;;;;;4950866;28;43131;-80
2023/10/13 10:23:43;;;;;;;;;;;23.50;89.20;;;;;;4943616;28;43878;-79
2023/10/13 10:26:29;;;;;;;;;;;24.60;88.20;;;;;;4924096;28;43173;-79
2023/10/13 10:29:18;;;;;;;;;;;23.90;89.70;;;;;;4923502;28;43127;-80
2023/10/13 10:37:39;;;;;;;;;;;23.90;87.60;;;;;;4925207;28;43116;-80
2023/10/13 10:40:08;;;;;;;;;;;24.00;89.50;;;;;;4934011;28;43060;-81
2023/10/13 11:00:45;;;;;;;;;;;24.20;88.40;;;;;;5165987;22;44593;-79
2023/10/13 11:03:12;;;;;;;;;;;24.00;86.20;;;;;;5024452;28;42888;-79
2023/10/13 11:10:49;;;;;;;;;;;24.00;88.30;;;;;;5559236;22;43963;-82
2023/10/13 11:13:30;;;;;;;;;;;24.00;88.60;;;;;;5043518;28;43121;-80
2023/10/13 11:16:01;;;;;;;;;;;24.00;88.80;;;;;;5044217;28;43030;-80
2023/10/13 11:21:15;;;;;;;;;;;24.00;87.00;;;;;;5044964;28;43032;-80
2023/10/13 11:23:42;;;;;;;;;;;24.00;89.10;;;;;;5043638;28;42951;-83
2023/10/13 11:26:07;;;;;;;;;;;24.00;87.70;;;;;;5045598;28;43059;-80
2023/10/13 11:28:34;;;;;;;;;;;23.80;89.00;;;;;;5045343;28;42944;-80
2023/10/13 11:31:19;;;;;;;;;;;23.90;89.00;;;;;;5044582;28;42993;-80
2023/10/13 11:33:46;;;;;;;;;;;23.90;89.20;;;;;;5049295;28;43290;-79
2023/10/13 11:36:25;;;;;;;;;;;23.90;86.80;;;;;;5053936;28;43032;-79
2023/10/13 11:38:57;;;;;;;;;;;24.00;86.90;;;;;;5049209;28;42845;-79
2023/10/13 11:41:34;;;;;;;;;;;24.00;89.40;;;;;;5065355;28;43583;-79
2023/10/13 11:47:32;;;;;;;;;;;23.90;86.70;;;;;;5049189;28;43018;-79
2023/10/13 11:49:58;;;;;;;;;;;23.90;87.30;;;;;;5064127;28;42971;-79
2023/10/13 11:52:26;;;;;;;;;;;23.90;89.70;;;;;;5064163;28;42906;-80
2023/10/13 11:55:13;;;;;;;;;;;23.90;89.70;;;;;;5053128;28;43061;-79
2023/10/13 12:08:52;;;;;;;;;;;24.00;89.10;;;;;;5251159;22;43088;-82
2023/10/13 12:11:30;;;;;;;;;;;23.80;88.90;;;;;;5030494;28;43431;-82
2023/10/13 12:13:56;;;;;;;;;;;23.90;89.00;;;;;;5021925;28;43000;-82
2023/10/13 12:16:21;;;;;;;;;;;24.00;88.90;;;;;;5015886;28;43105;-81
2023/10/13 12:18:53;;;;;;;;;;;23.90;88.70;;;;;;5014614;28;42990;-81
2023/10/13 12:21:21;;;;;;;;;;;23.80;88.60;;;;;;5027292;28;43018;-83
2023/10/13 12:23:47;;;;;;;;;;;24.00;88.90;;;;;;5017257;28;43002;-83
2023/10/13 12:26:19;;;;;;;;;;;24.00;88.70;;;;;;5015956;28;42989;-82
2023/10/13 12:28:51;;;;;;;;;;;23.90;88.80;;;;;;5015079;28;43755;-80
2023/10/13 12:31:17;;;;;;;;;;;23.90;88.60;;;;;;5003844;28;43168;-83
2023/10/13 12:33:45;;;;;;;;;;;23.80;88.50;;;;;;5019117;28;43535;-80
2023/10/13 12:38:39;;;;;;;;;;;23.90;88.60;;;;;;5016787;28;43499;-82
2023/10/13 12:52:03;;;;;;;;;;;23.90;86.30;;;;;;5019866;28;43254;-84
2023/10/13 12:54:35;;;;;;;;;;;24.00;88.50;;;;;;5018180;28;42997;-82
2023/10/13 12:57:01;;;;;;;;;;;23.90;88.30;;;;;;5025581;28;43625;-82
2023/10/13 12:59:26;;;;;;;;;;;24.00;88.30;;;;;;5019835;28;43332;-82
2023/10/13 13:01:52;;;;;;;;;;;23.90;88.20;;;;;;5022332;28;43012;-86
2023/10/13 13:04:20;;;;;;;;;;;23.90;88.30;;;;;;5016404;28;43305;-87
2023/10/13 13:06:49;;;;;;;;;;;23.90;88.30;;;;;;5014086;28;43719;-84
2023/10/13 13:09:15;;;;;;;;;;;24.00;88.50;;;;;;4996032;28;45536;-83
2023/10/13 13:11:40;;;;;;;;;;;24.00;88.40;;;;;;5016667;28;42907;-85
2023/10/13 13:14:07;;;;;;;;;;;23.90;88.10;;;;;;5020191;28;43144;-84
2023/10/13 13:16:33;;;;;;;;;;;24.00;88.20;;;;;;5020263;28;43112;-85
2023/10/13 13:18:59;;;;;;;;;;;23.90;88.30;;;;;;5023262;28;42976;-85
2023/10/13 13:21:24;;;;;;;;;;;24.00;88.50;;;;;;5020106;28;42989;-85
2023/10/13 13:23:50;;;;;;;;;;;24.00;88.50;;;;;;5024270;28;42985;-89
2023/10/13 13:26:17;;;;;;;;;;;24.00;88.50;;;;;;5002013;28;42991;-86
2023/10/13 13:28:43;;;;;;;;;;;23.80;88.40;;;;;;5021968;28;43471;-84
2023/10/13 13:31:08;;;;;;;;;;;24.00;88.50;;;;;;5022170;28;43097;-84
2023/10/13 13:33:38;;;;;;;;;;;24.00;88.50;;;;;;5020161;28;43819;-84
2023/10/13 13:36:04;;;;;;;;;;;23.90;88.20;;;;;;4988712;28;43055;-84
2023/10/13 13:38:36;;;;;;;;;;;23.80;88.40;;;;;;5016509;28;43387;-86
2023/10/13 13:41:03;;;;;;;;;;;23.80;86.00;;;;;;5021839;28;43187;-80
2023/10/13 13:43:37;;;;;;;;;;;23.90;88.60;;;;;;5001051;28;43974;-80
2023/10/13 13:46:08;;;;;;;;;;;24.00;86.40;;;;;;5023704;28;42989;-81
2023/10/13 13:51:42;;;;;;;;;;;23.90;87.10;;;;;;5018210;28;43318;-82
2023/10/13 13:54:12;;;;;;;;;;;23.90;87.20;;;;;;5023143;28;43093;-80
2023/10/13 13:56:38;;;;;;;;;;;24.00;87.50;;;;;;5018660;28;43043;-80
2023/10/13 13:59:08;;;;;;;;;;;24.40;89.80;;;;;;5020148;28;42925;-80
2023/10/13 14:01:37;;;;;;;;;;;24.00;89.60;;;;;;5006738;28;42869;-81
2023/10/13 14:04:03;;;;;;;;;;;23.70;89.90;;;;;;5024136;28;43492;-81
2023/10/13 14:06:29;;;;;;;;;;;23.80;89.80;;;;;;5023054;28;42913;-81
2023/10/13 14:09:00;;;;;;;;;;;23.80;90.00;;;;;;5026205;28;42994;-81
2023/10/13 14:14:15;;;;;;;;;;;23.80;90.10;;;;;;5025680;28;43353;-81
2023/10/13 14:16:44;;;;;;;;;;;23.90;89.80;;;;;;5016391;28;43294;-80
2023/10/13 14:19:19;;;;;;;;;;;23.90;89.00;;;;;;5028346;28;43785;-81
2023/10/13 14:21:44;;;;;;;;;;;23.90;89.70;;;;;;5264111;22;43129;-81
2023/10/13 14:24:14;;;;;;;;;;;23.90;89.70;;;;;;5036135;28;43603;-79
2023/10/13 14:26:42;;;;;;;;;;;23.90;87.40;;;;;;5039218;28;43049;-80
2023/10/13 14:29:09;;;;;;;;;;;23.90;89.70;;;;;;5042632;28;44494;-81
2023/10/13 14:31:39;;;;;;;;;;;24.00;90.10;;;;;;5051143;28;42924;-80
2023/10/13 14:34:05;;;;;;;;;;;23.90;89.60;;;;;;5504896;22;43026;-80
2023/10/13 14:36:48;;;;;;;;;;;24.00;90.00;;;;;;5039588;28;43002;-80
2023/10/13 14:39:15;;;;;;;;;;;23.80;87.60;;;;;;5051096;28;44082;-80
2023/10/13 14:41:41;;;;;;;;;;;23.90;87.70;;;;;;5049250;28;42995;-80
2023/10/13 14:44:06;;;;;;;;;;;23.90;89.60;;;;;;5047326;28;44206;-80
2023/10/13 14:46:35;;;;;;;;;;;24.10;89.70;;;;;;5047266;28;42932;-81
2023/10/13 14:49:02;;;;;;;;;;;23.90;87.50;;;;;;5047208;28;42971;-80
2023/10/13 14:51:28;;;;;;;;;;;24.00;89.40;;;;;;5046473;28;43080;-80
2023/10/13 15:43:49;;;;;;;;;;;24.20;86.30;;;;;;4984069;28;44567;-80
2023/10/13 15:46:16;;;;;;;;;;;24.00;88.80;;;;;;4998046;28;44066;-76
2023/10/13 15:48:45;;;;;;;;;;;24.00;88.80;;;;;;5035376;28;43032;-77
2023/10/13 15:51:14;;;;;;;;;;;23.80;89.10;;;;;;5065967;28;43499;-82
2023/10/13 15:53:40;;;;;;;;;;;24.00;89.20;;;;;;5067185;28;43116;-77
2023/10/13 15:56:11;;;;;;;;;;;24.00;88.80;;;;;;5065142;28;43148;-77
2023/10/13 15:58:49;;;;;;;;;;;24.10;88.60;;;;;;5211127;22;43223;-79
2023/10/13 16:01:16;;;;;;;;;;;24.00;86.70;;;;;;5028492;28;44404;-77
2023/10/13 16:03:49;;;;;;;;;;;24.20;88.60;;;;;;5046873;28;42991;-78
2023/10/13 16:06:15;;;;;;;;;;;24.20;86.30;;;;;;5045031;28;43434;-79
2023/10/13 16:08:44;;;;;;;;;;;24.10;88.70;;;;;;5045158;28;42968;-80
2023/10/13 16:11:13;;;;;;;;;;;24.10;86.70;;;;;;5045697;28;43586;-77
2023/10/13 16:13:45;;;;;;;;;;;24.20;89.20;;;;;;5046091;28;42905;-77
2023/10/13 16:16:24;;;;;;;;;;;23.90;86.40;;;;;;5044331;28;43775;-78
2023/10/13 16:21:59;;;;;;;;;;;24.20;88.50;;;;;;4990247;28;43138;-79
2023/10/13 16:24:24;;;;;;;;;;;24.10;88.40;;;;;;5001447;28;43071;-78
2023/10/13 16:26:55;;;;;;;;;;;24.10;88.20;;;;;;5404519;22;43088;-79
2023/10/13 16:29:21;;;;;;;;;;;24.20;87.90;;;;;;5047758;28;43432;-79
2023/10/13 16:31:47;;;;;;;;;;;24.00;88.70;;;;;;5029864;28;43993;-78
2023/10/13 16:34:15;;;;;;;;;;;24.20;87.80;;;;;;5054653;28;43074;-78
2023/10/13 16:36:47;;;;;;;;;;;24.20;88.30;;;;;;5065543;28;42935;-79
2023/10/13 16:39:14;;;;;;;;;;;24.10;86.20;;;;;;5064407;28;42686;-78
2023/10/13 16:41:41;;;;;;;;;;;24.20;88.20;;;;;;5027514;28;42955;-77
2023/10/13 16:44:09;;;;;;;;;;;24.40;88.20;;;;;;5027836;28;42940;-79
2023/10/13 16:46:36;;;;;;;;;;;23.20;87.80;;;;;;5054986;28;43012;-77
2023/10/13 16:49:02;;;;;;;;;;;24.20;89.00;;;;;;5064900;28;42810;-77
2023/10/13 16:51:29;;;;;;;;;;;24.30;89.00;;;;;;5053133;28;43301;-78
2023/10/13 16:53:55;;;;;;;;;;;24.30;86.30;;;;;;5045749;28;42939;-79
2023/10/13 16:56:23;;;;;;;;;;;24.40;88.60;;;;;;5045896;28;42972;-79
2023/10/13 16:58:49;;;;;;;;;;;24.30;86.90;;;;;;5045409;28;43156;-79
2023/10/13 17:01:15;;;;;;;;;;;24.30;88.80;;;;;;5056050;28;43605;-79
2023/10/13 17:03:41;;;;;;;;;;;24.20;89.20;;;;;;5064135;28;43134;-79
2023/10/13 17:19:33;;;;;;;;;;;24.40;87.60;;;;;;5057080;28;42829;-79
2023/10/13 17:21:59;;;;;;;;;;;24.30;88.60;;;;;;5023816;28;43453;-79
2023/10/13 17:24:24;;;;;;;;;;;24.20;88.80;;;;;;5036764;28;42917;-79
2023/10/13 17:26:50;;;;;;;;;;;24.20;88.90;;;;;;5050982;28;43037;-80
2023/10/13 17:29:15;;;;;;;;;;;24.10;89.00;;;;;;5045052;28;42981;-80
2023/10/13 17:31:41;;;;;;;;;;;24.20;89.70;;;;;;5043589;28;43531;-80
2023/10/13 17:34:06;;;;;;;;;;;24.10;89.30;;;;;;5042266;28;42940;-79
2023/10/13 17:36:32;;;;;;;;;;;24.20;89.20;;;;;;5037796;28;43065;-81
2023/10/13 17:38:58;;;;;;;;;;;23.80;89.30;;;;;;5030782;28;42966;-79
2023/10/13 17:41:24;;;;;;;;;;;24.10;89.70;;;;;;5041700;28;44645;-79
2023/10/13 17:43:50;;;;;;;;;;;24.00;89.50;;;;;;5036912;28;43060;-83
2023/10/13 17:46:15;;;;;;;;;;;24.00;89.60;;;;;;5042319;28;43939;-79
2023/10/13 17:48:43;;;;;;;;;;;24.00;89.40;;;;;;5045337;28;43076;-82
2023/10/13 17:51:10;;;;;;;;;;;24.00;89.10;;;;;;5039519;28;43392;-79
2023/10/13 17:53:41;;;;;;;;;;;24.10;90.00;;;;;;5040003;28;43237;-81
2023/10/13 17:56:12;;;;;;;;;;;24.10;86.70;;;;;;5035833;28;42983;-79
2023/10/13 17:58:41;;;;;;;;;;;24.50;89.60;;;;;;5040985;28;42940;-78
2023/10/13 18:01:20;;;;;;;;;;;24.30;88.80;;;;;;5036464;28;45015;-81
2023/10/13 18:03:47;;;;;;;;;;;24.40;86.70;;;;;;5036142;28;42940;-80
2023/10/13 18:06:16;;;;;;;;;;;24.30;88.60;;;;;;5038802;28;43431;-81
2023/10/13 18:08:46;;;;;;;;;;;24.30;82.00;;;;;;5038045;28;43049;-81
2023/10/13 18:11:15;;;;;;;;;;;24.10;81.40;;;;;;5036505;28;43679;-82
2023/10/13 18:13:41;;;;;;;;;;;24.10;83.60;;;;;;5038697;28;43068;-81
2023/10/13 18:16:34;;;;;;;;;;;24.00;83.70;;;;;;5039642;28;43566;-78
2023/10/13 18:18:59;;;;;;;;;;;24.10;81.10;;;;;;5018927;28;42896;-79
2023/10/13 18:21:25;;;;;;;;;;;24.00;83.30;;;;;;5038422;28;43326;-79
2023/10/13 18:23:51;;;;;;;;;;;24.10;83.70;;;;;;5037399;28;43299;-79
2023/10/13 18:26:20;;;;;;;;;;;24.10;83.60;;;;;;5036006;28;43619;-79
2023/10/13 18:28:46;;;;;;;;;;;24.20;83.20;;;;;;5038079;28;42980;-79
2023/10/13 18:31:11;;;;;;;;;;;24.30;83.10;;;;;;5036701;28;43077;-79
2023/10/13 18:33:38;;;;;;;;;;;24.00;83.10;;;;;;5035290;28;43019;-79
2023/10/13 18:36:24;;;;;;;;;;;23.90;83.30;;;;;;5018047;28;43631;-79
2023/10/13 18:38:50;;;;;;;;;;;23.80;80.80;;;;;;5037323;28;43105;-80
2023/10/13 18:41:18;;;;;;;;;;;24.10;83.50;;;;;;5036409;28;43058;-80
2023/10/13 18:43:44;;;;;;;;;;;24.10;83.50;;;;;;5039234;28;43018;-79
2023/10/13 18:58:32;;;;;;;;;;;24.10;82.40;;;;;;5042410;28;43316;-78
2023/10/13 19:07:05;;;;;;;;;;;23.90;82.90;;;;;;5044053;28;42930;-79
2023/10/13 19:09:44;;;;;;;;;;;24.10;83.80;;;;;;5045317;28;43055;-79
2023/10/13 19:12:10;;;;;;;;;;;23.80;83.50;;;;;;5047629;28;43089;-79
2023/10/13 19:14:37;;;;;;;;;;;23.90;83.60;;;;;;5044829;28;43094;-79
2023/10/13 19:17:03;;;;;;;;;;;23.90;84.20;;;;;;5032887;28;42814;-78
2023/10/13 19:19:32;;;;;;;;;;;23.90;83.70;;;;;;5040671;28;44193;-78
2023/10/13 19:22:01;;;;;;;;;;;23.80;83.50;;;;;;5046565;28;42964;-78
2023/10/13 19:24:28;;;;;;;;;;;23.80;81.50;;;;;;5044912;28;42927;-82
2023/10/13 19:26:54;;;;;;;;;;;23.90;83.50;;;;;;5045678;28;42983;-79
2023/10/13 19:29:19;;;;;;;;;;;23.80;83.90;;;;;;5045677;28;42818;-80
2023/10/13 19:31:45;;;;;;;;;;;24.00;83.50;;;;;;5028781;28;43247;-79
2023/10/13 19:34:17;;;;;;;;;;;23.90;83.50;;;;;;5045450;28;43478;-78
2023/10/13 19:36:42;;;;;;;;;;;23.80;84.00;;;;;;5046988;28;42869;-78
2023/10/13 19:39:08;;;;;;;;;;;23.90;83.50;;;;;;5045617;28;43631;-78
2023/10/13 19:41:34;;;;;;;;;;;23.90;83.80;;;;;;5045513;28;42906;-79
2023/10/13 19:44:02;;;;;;;;;;;23.90;83.30;;;;;;5045259;28;43757;-76
2023/10/13 19:46:28;;;;;;;;;;;23.60;83.40;;;;;;5046751;28;43201;-78
2023/10/13 19:48:54;;;;;;;;;;;24.00;83.70;;;;;;5044885;28;43224;-78
2023/10/13 19:51:25;;;;;;;;;;;24.40;83.20;;;;;;5042961;28;43019;-79
2023/10/13 19:56:30;;;;;;;;;;;23.90;81.90;;;;;;5269067;22;43009;-76
2023/10/13 19:58:56;;;;;;;;;;;24.00;82.20;;;;;;5044437;28;43144;-78
2023/10/13 20:01:22;;;;;;;;;;;24.20;82.50;;;;;;5050494;28;43284;-79
2023/10/13 20:03:54;;;;;;;;;;;24.00;82.20;;;;;;5046482;28;43016;-78
2023/10/13 20:06:22;;;;;;;;;;;24.00;79.70;;;;;;5042530;28;42932;-79
2023/10/13 20:08:49;;;;;;;;;;;24.00;82.00;;;;;;5033200;28;43053;-79
2023/10/13 20:11:18;;;;;;;;;;;24.00;81.90;;;;;;5026801;28;42952;-78
2023/10/13 20:13:47;;;;;;;;;;;24.00;81.90;;;;;;5025934;28;44012;-79
2023/10/13 20:16:19;;;;;;;;;;;23.90;81.60;;;;;;5033305;28;42995;-80
2023/10/13 20:18:48;;;;;;;;;;;23.80;81.60;;;;;;5034642;28;43042;-79
2023/10/13 20:21:15;;;;;;;;;;;24.30;79.40;;;;;;5039066;28;42940;-80
2023/10/13 20:23:43;;;;;;;;;;;24.10;81.40;;;;;;5011287;28;45168;-79
2023/10/13 20:33:56;;;;;;;;;;;24.00;80.20;;;;;;5593173;22;43308;-79
2023/10/13 20:36:24;;;;;;;;;;;24.00;81.10;;;;;;5037220;28;42991;-78
2023/10/13 20:38:51;;;;;;;;;;;23.90;78.40;;;;;;5037390;28;43362;-78
2023/10/13 20:41:17;;;;;;;;;;;23.90;78.90;;;;;;5032531;28;43192;-77
2023/10/13 20:43:48;;;;;;;;;;;24.00;81.10;;;;;;5015232;28;44640;-75
2023/10/13 20:46:16;;;;;;;;;;;23.60;78.60;;;;;;5023811;28;43012;-80
2023/10/13 20:48:42;;;;;;;;;;;23.90;81.20;;;;;;5024437;28;43086;-79
2023/10/13 20:51:09;;;;;;;;;;;23.80;80.90;;;;;;5024918;28;42867;-79
2023/10/13 20:53:37;;;;;;;;;;;23.80;80.90;;;;;;5007231;28;44441;-79
2023/10/13 20:56:03;;;;;;;;;;;24.00;81.60;;;;;;5024050;28;42947;-79
2023/10/13 20:58:30;;;;;;;;;;;23.90;80.80;;;;;;5026168;28;42926;-79
2023/10/13 21:00:57;;;;;;;;;;;23.70;81.00;;;;;;5025938;28;42929;-79
2023/10/13 21:03:23;;;;;;;;;;;24.00;80.60;;;;;;5004748;28;44552;-79
2023/10/13 21:05:48;;;;;;;;;;;24.00;81.20;;;;;;5023757;28;42992;-79
2023/10/13 21:08:14;;;;;;;;;;;24.00;81.10;;;;;;5023545;28;43373;-80
2023/10/13 21:10:40;;;;;;;;;;;24.00;80.90;;;;;;5008220;28;42980;-78
2023/10/13 21:23:28;;;;;;;;;;;24.20;80.20;;;;;;5906391;22;43175;-79
2023/10/13 21:25:54;;;;;;;;;;;24.00;80.90;;;;;;5037756;28;42920;-78
2023/10/13 21:28:21;;;;;;;;;;;23.80;81.10;;;;;;5032974;28;42967;-79
2023/10/13 22:25:49;;;;;;;;;;;23.40;80.00;;;;;;5040623;28;42934;-78
2023/10/13 22:47:18;;;;;;;;;;;24.20;79.90;;;;;;5448103;22;42997;-80
2023/10/13 22:49:43;;;;;;;;;;;24.00;80.10;;;;;;5078077;28;42861;-80
2023/10/13 22:52:09;;;;;;;;;;;24.00;80.50;;;;;;5073083;28;43006;-79
2023/10/13 22:54:36;;;;;;;;;;;24.00;80.50;;;;;;5066495;28;43597;-80
2023/10/13 22:57:04;;;;;;;;;;;23.90;80.90;;;;;;5066625;28;42880;-80
2023/10/13 22:59:30;;;;;;;;;;;24.00;80.90;;;;;;5065781;28;43401;-80
2023/10/13 23:01:58;;;;;;;;;;;23.90;81.10;;;;;;5066080;28;43261;-79
2023/10/13 23:04:24;;;;;;;;;;;23.90;81.00;;;;;;5065793;28;43418;-78
2023/10/13 23:06:50;;;;;;;;;;;24.00;81.00;;;;;;5066434;28;42900;-79
2023/10/13 23:17:04;;;;;;;;;;;24.00;77.30;;;;;;5024403;28;59398;-80
2023/10/13 23:19:34;;;;;;;;;;;23.60;80.20;;;;;;5025002;28;42985;-79
2023/10/13 23:22:01;;;;;;;;;;;24.10;80.10;;;;;;5027267;28;43189;-80
2023/10/13 23:24:26;;;;;;;;;;;24.00;80.60;;;;;;5026488;28;43441;-79
2023/10/13 23:26:52;;;;;;;;;;;24.10;80.10;;;;;;5026917;28;43000;-79
2023/10/13 23:29:18;;;;;;;;;;;24.00;80.10;;;;;;5008452;28;42941;-80
2023/10/13 23:31:43;;;;;;;;;;;24.00;80.00;;;;;;5023910;28;42936;-80
2023/10/13 23:34:10;;;;;;;;;;;24.00;80.40;;;;;;5026716;28;43733;-79
2023/10/13 23:36:38;;;;;;;;;;;24.30;80.70;;;;;;5027118;28;42886;-79
2023/10/13 23:39:10;;;;;;;;;;;23.90;80.50;;;;;;5026684;28;42958;-80
2023/10/13 23:41:40;;;;;;;;;;;24.00;80.20;;;;;;5008955;28;43016;-80
2023/10/13 23:44:17;;;;;;;;;;;24.00;80.00;;;;;;5026502;28;42934;-80
2023/10/13 23:46:46;;;;;;;;;;;24.00;80.40;;;;;;5026669;28;42822;-79
2023/10/13 23:49:18;;;;;;;;;;;24.10;77.70;;;;;;5020691;28;43743;-79
2023/10/13 23:51:53;;;;;;;;;;;24.10;80.30;;;;;;5006994;28;42768;-79
2023/10/13 23:54:19;;;;;;;;;;;24.00;80.40;;;;;;5006971;28;43325;-79
